sensor_id;sensor_type;location;lat;lon;timestamp;P1;durP1;ratioP1;P2;durP2;ratioP2
21733;SDS011;11029;47.820;10.534;2023-02-01T00:00:27;5.35;;;3.75;;
21733;SDS011;11029;47.820;10.534;2023-02-01T00:02:53;4.63;;;3.50;;
21733;SDS011;11029;47.820;10.534;2023-02-01T00:05:20;7.88;;;4.03;;
21733;SDS011;11029;47.820;10.534;2023-02-01T00:07:47;4.25;;;3.15;;
21733;SDS011;11029;47.820;10.534;2023-02-01T00:10:15;5.13;;;3.78;;
21733;SDS011;11029;47.820;10.534;2023-02-01T00:12:43;8.80;;;3.88;;
21733;SDS011;11029;47.820;10.534;2023-02-01T00:15:10;9.65;;;4.28;;
21733;SDS011;11029;47.820;10.534;2023-02-01T00:17:36;6.10;;;3.80;;
21733;SDS011;11029;47.820;10.534;2023-02-01T00:20:03;5.53;;;3.95;;
21733;SDS011;11029;47.820;10.534;2023-02-01T00:22:30;4.93;;;3.67;;
21733;SDS011;11029;47.820;10.534;2023-02-01T00:24:57;4.90;;;3.67;;
21733;SDS011;11029;47.820;10.534;2023-02-01T00:27:24;6.72;;;4.43;;
21733;SDS011;11029;47.820;10.534;2023-02-01T00:29:50;5.95;;;4.07;;
21733;SDS011;11029;47.820;10.534;2023-02-01T00:32:18;7.63;;;3.95;;
21733;SDS011;11029;47.820;10.534;2023-02-01T00:34:44;6.43;;;4.30;;
21733;SDS011;11029;47.820;10.534;2023-02-01T00:37:11;7.47;;;4.18;;
21733;SDS011;11029;47.820;10.534;2023-02-01T00:39:38;5.65;;;3.90;;
21733;SDS011;11029;47.820;10.534;2023-02-01T00:42:04;6.45;;;4.32;;
21733;SDS011;11029;47.820;10.534;2023-02-01T00:44:31;5.38;;;3.65;;
21733;SDS011;11029;47.820;10.534;2023-02-01T00:47:00;5.57;;;3.97;;
21733;SDS011;11029;47.820;10.534;2023-02-01T00:49:28;6.65;;;4.05;;
21733;SDS011;11029;47.820;10.534;2023-02-01T00:51:55;5.97;;;3.92;;
21733;SDS011;11029;47.820;10.534;2023-02-01T00:54:22;8.45;;;4.30;;
21733;SDS011;11029;47.820;10.534;2023-02-01T00:56:49;4.97;;;3.60;;
21733;SDS011;11029;47.820;10.534;2023-02-01T00:59:17;6.25;;;4.20;;
21733;SDS011;11029;47.820;10.534;2023-02-01T01:01:44;6.28;;;3.97;;
21733;SDS011;11029;47.820;10.534;2023-02-01T01:04:11;5.10;;;3.53;;
21733;SDS011;11029;47.820;10.534;2023-02-01T01:06:38;5.82;;;3.85;;
21733;SDS011;11029;47.820;10.534;2023-02-01T01:09:05;7.68;;;4.20;;
21733;SDS011;11029;47.820;10.534;2023-02-01T01:11:34;5.55;;;4.13;;
21733;SDS011;11029;47.820;10.534;2023-02-01T01:14:04;9.88;;;4.78;;
21733;SDS011;11029;47.820;10.534;2023-02-01T01:16:32;6.95;;;4.55;;
21733;SDS011;11029;47.820;10.534;2023-02-01T01:19:00;7.50;;;4.20;;
21733;SDS011;11029;47.820;10.534;2023-02-01T01:21:28;6.75;;;4.32;;
21733;SDS011;11029;47.820;10.534;2023-02-01T01:23:56;6.40;;;4.13;;
21733;SDS011;11029;47.820;10.534;2023-02-01T01:26:26;8.35;;;4.95;;
21733;SDS011;11029;47.820;10.534;2023-02-01T01:28:55;7.15;;;4.28;;
21733;SDS011;11029;47.820;10.534;2023-02-01T01:31:23;6.78;;;4.32;;
21733;SDS011;11029;47.820;10.534;2023-02-01T01:33:51;8.18;;;4.55;;
21733;SDS011;11029;47.820;10.534;2023-02-01T01:36:19;9.85;;;4.75;;
21733;SDS011;11029;47.820;10.534;2023-02-01T01:38:46;7.97;;;4.78;;
21733;SDS011;11029;47.820;10.534;2023-02-01T01:41:15;7.05;;;4.43;;
21733;SDS011;11029;47.820;10.534;2023-02-01T01:43:47;5.15;;;4.15;;
21733;SDS011;11029;47.820;10.534;2023-02-01T01:46:18;7.50;;;4.60;;
21733;SDS011;11029;47.820;10.534;2023-02-01T01:48:48;7.70;;;4.80;;
21733;SDS011;11029;47.820;10.534;2023-02-01T01:51:18;10.85;;;4.40;;
21733;SDS011;11029;47.820;10.534;2023-02-01T01:53:50;6.30;;;3.78;;
21733;SDS011;11029;47.820;10.534;2023-02-01T01:56:40;6.45;;;4.65;;
21733;SDS011;11029;47.820;10.534;2023-02-01T01:59:07;6.25;;;4.13;;
21733;SDS011;11029;47.820;10.534;2023-02-01T02:01:35;8.55;;;4.05;;
21733;SDS011;11029;47.820;10.534;2023-02-01T02:04:02;5.53;;;4.30;;
21733;SDS011;11029;47.820;10.534;2023-02-01T02:06:50;5.80;;;4.03;;
21733;SDS011;11029;47.820;10.534;2023-02-01T02:09:25;7.90;;;4.10;;
21733;SDS011;11029;47.820;10.534;2023-02-01T02:11:52;6.28;;;4.13;;
21733;SDS011;11029;47.820;10.534;2023-02-01T02:14:19;6.68;;;3.80;;
21733;SDS011;11029;47.820;10.534;2023-02-01T02:16:58;7.13;;;3.88;;
21733;SDS011;11029;47.820;10.534;2023-02-01T02:39:34;6.25;;;3.67;;
21733;SDS011;11029;47.820;10.534;2023-02-01T02:45:27;6.80;;;4.38;;
21733;SDS011;11029;47.820;10.534;2023-02-01T02:48:26;5.40;;;3.92;;
21733;SDS011;11029;47.820;10.534;2023-02-01T02:51:05;6.60;;;4.47;;
21733;SDS011;11029;47.820;10.534;2023-02-01T02:56:57;7.70;;;4.35;;
21733;SDS011;11029;47.820;10.534;2023-02-01T02:59:45;9.38;;;3.92;;
21733;SDS011;11029;47.820;10.534;2023-02-01T03:02:32;7.03;;;4.28;;
21733;SDS011;11029;47.820;10.534;2023-02-01T03:05:19;6.35;;;4.32;;
21733;SDS011;11029;47.820;10.534;2023-02-01T03:08:00;7.10;;;4.32;;
21733;SDS011;11029;47.820;10.534;2023-02-01T03:10:33;6.70;;;4.32;;
21733;SDS011;11029;47.820;10.534;2023-02-01T03:14:04;5.85;;;4.22;;
21733;SDS011;11029;47.820;10.534;2023-02-01T03:16:36;5.85;;;4.22;;
21733;SDS011;11029;47.820;10.534;2023-02-01T03:19:15;7.32;;;3.83;;
21733;SDS011;11029;47.820;10.534;2023-02-01T03:21:59;7.20;;;3.83;;
21733;SDS011;11029;47.820;10.534;2023-02-01T03:24:41;7.47;;;4.15;;
21733;SDS011;11029;47.820;10.534;2023-02-01T03:27:20;7.90;;;4.47;;
21733;SDS011;11029;47.820;10.534;2023-02-01T03:32:48;6.50;;;4.20;;
21733;SDS011;11029;47.820;10.534;2023-02-01T03:40:57;6.93;;;4.28;;
21733;SDS011;11029;47.820;10.534;2023-02-01T03:43:49;6.22;;;4.07;;
21733;SDS011;11029;47.820;10.534;2023-02-01T03:46:32;6.68;;;4.03;;
21733;SDS011;11029;47.820;10.534;2023-02-01T03:49:03;5.75;;;3.63;;
21733;SDS011;11029;47.820;10.534;2023-02-01T03:51:33;8.68;;;4.40;;
21733;SDS011;11029;47.820;10.534;2023-02-01T03:54:02;5.72;;;4.10;;
21733;SDS011;11029;47.820;10.534;2023-02-01T03:56:31;5.97;;;4.50;;
21733;SDS011;11029;47.820;10.534;2023-02-01T03:59:02;7.30;;;4.30;;
21733;SDS011;11029;47.820;10.534;2023-02-01T04:01:33;5.65;;;4.10;;
21733;SDS011;11029;47.820;10.534;2023-02-01T04:04:00;6.20;;;4.40;;
21733;SDS011;11029;47.820;10.534;2023-02-01T04:06:27;7.47;;;4.40;;
21733;SDS011;11029;47.820;10.534;2023-02-01T04:08:58;6.45;;;4.43;;
21733;SDS011;11029;47.820;10.534;2023-02-01T04:11:25;6.38;;;4.63;;
21733;SDS011;11029;47.820;10.534;2023-02-01T04:13:53;7.13;;;4.55;;
21733;SDS011;11029;47.820;10.534;2023-02-01T04:16:20;7.60;;;4.80;;
21733;SDS011;11029;47.820;10.534;2023-02-01T04:18:46;7.50;;;4.85;;
21733;SDS011;11029;47.820;10.534;2023-02-01T04:21:13;7.43;;;4.53;;
21733;SDS011;11029;47.820;10.534;2023-02-01T04:23:40;6.75;;;4.60;;
21733;SDS011;11029;47.820;10.534;2023-02-01T04:26:06;5.65;;;4.55;;
21733;SDS011;11029;47.820;10.534;2023-02-01T04:28:33;8.40;;;4.75;;
21733;SDS011;11029;47.820;10.534;2023-02-01T04:31:00;6.35;;;4.07;;
21733;SDS011;11029;47.820;10.534;2023-02-01T04:33:27;6.93;;;4.82;;
21733;SDS011;11029;47.820;10.534;2023-02-01T04:35:54;6.85;;;4.25;;
21733;SDS011;11029;47.820;10.534;2023-02-01T04:38:20;9.50;;;5.35;;
21733;SDS011;11029;47.820;10.534;2023-02-01T04:40:47;7.05;;;4.53;;
21733;SDS011;11029;47.820;10.534;2023-02-01T04:43:15;6.93;;;4.15;;
21733;SDS011;11029;47.820;10.534;2023-02-01T04:45:46;5.35;;;3.80;;
21733;SDS011;11029;47.820;10.534;2023-02-01T04:48:15;6.85;;;4.60;;
21733;SDS011;11029;47.820;10.534;2023-02-01T04:50:42;9.25;;;5.32;;
21733;SDS011;11029;47.820;10.534;2023-02-01T04:53:16;6.50;;;4.03;;
21733;SDS011;11029;47.820;10.534;2023-02-01T04:55:43;9.20;;;4.68;;
21733;SDS011;11029;47.820;10.534;2023-02-01T04:58:10;8.18;;;4.22;;
21733;SDS011;11029;47.820;10.534;2023-02-01T05:00:37;7.43;;;4.72;;
21733;SDS011;11029;47.820;10.534;2023-02-01T05:03:04;7.25;;;4.68;;
21733;SDS011;11029;47.820;10.534;2023-02-01T05:05:31;7.40;;;4.47;;
21733;SDS011;11029;47.820;10.534;2023-02-01T05:07:57;7.50;;;4.47;;
21733;SDS011;11029;47.820;10.534;2023-02-01T05:10:24;7.28;;;4.50;;
21733;SDS011;11029;47.820;10.534;2023-02-01T05:12:51;6.82;;;4.25;;
21733;SDS011;11029;47.820;10.534;2023-02-01T05:15:36;6.18;;;4.38;;
21733;SDS011;11029;47.820;10.534;2023-02-01T05:18:03;5.60;;;3.83;;
21733;SDS011;11029;47.820;10.534;2023-02-01T05:20:30;6.90;;;4.15;;
21733;SDS011;11029;47.820;10.534;2023-02-01T05:22:57;5.25;;;3.67;;
21733;SDS011;11029;47.820;10.534;2023-02-01T05:25:24;7.22;;;3.92;;
21733;SDS011;11029;47.820;10.534;2023-02-01T05:27:53;7.10;;;3.80;;
21733;SDS011;11029;47.820;10.534;2023-02-01T05:30:20;5.35;;;3.90;;
21733;SDS011;11029;47.820;10.534;2023-02-01T05:32:50;6.20;;;3.95;;
21733;SDS011;11029;47.820;10.534;2023-02-01T05:35:18;5.25;;;3.60;;
21733;SDS011;11029;47.820;10.534;2023-02-01T05:37:45;5.53;;;3.10;;
21733;SDS011;11029;47.820;10.534;2023-02-01T05:40:12;7.05;;;3.85;;
21733;SDS011;11029;47.820;10.534;2023-02-01T05:42:39;4.60;;;3.55;;
21733;SDS011;11029;47.820;10.534;2023-02-01T05:45:06;7.18;;;4.03;;
21733;SDS011;11029;47.820;10.534;2023-02-01T05:47:33;4.90;;;3.55;;
21733;SDS011;11029;47.820;10.534;2023-02-01T05:50:00;5.28;;;3.60;;
21733;SDS011;11029;47.820;10.534;2023-02-01T05:52:27;5.68;;;3.65;;
21733;SDS011;11029;47.820;10.534;2023-02-01T05:54:53;6.10;;;3.80;;
21733;SDS011;11029;47.820;10.534;2023-02-01T05:57:20;5.32;;;3.90;;
21733;SDS011;11029;47.820;10.534;2023-02-01T05:59:47;5.28;;;3.60;;
21733;SDS011;11029;47.820;10.534;2023-02-01T06:02:15;5.45;;;3.78;;
21733;SDS011;11029;47.820;10.534;2023-02-01T06:04:42;5.65;;;3.75;;
21733;SDS011;11029;47.820;10.534;2023-02-01T06:07:09;6.22;;;3.90;;
21733;SDS011;11029;47.820;10.534;2023-02-01T06:09:36;6.90;;;4.10;;
21733;SDS011;11029;47.820;10.534;2023-02-01T06:12:03;6.20;;;3.72;;
21733;SDS011;11029;47.820;10.534;2023-02-01T06:14:30;5.95;;;3.50;;
21733;SDS011;11029;47.820;10.534;2023-02-01T06:16:57;6.15;;;4.20;;
21733;SDS011;11029;47.820;10.534;2023-02-01T06:19:24;6.63;;;3.83;;
21733;SDS011;11029;47.820;10.534;2023-02-01T06:21:51;5.70;;;4.22;;
21733;SDS011;11029;47.820;10.534;2023-02-01T06:24:18;7.72;;;3.85;;
21733;SDS011;11029;47.820;10.534;2023-02-01T06:26:44;7.85;;;3.90;;
21733;SDS011;11029;47.820;10.534;2023-02-01T06:29:12;8.45;;;4.25;;
21733;SDS011;11029;47.820;10.534;2023-02-01T06:31:39;5.82;;;3.97;;
21733;SDS011;11029;47.820;10.534;2023-02-01T06:34:06;5.15;;;3.72;;
21733;SDS011;11029;47.820;10.534;2023-02-01T06:36:33;7.05;;;4.38;;
21733;SDS011;11029;47.820;10.534;2023-02-01T06:39:00;7.55;;;3.88;;
21733;SDS011;11029;47.820;10.534;2023-02-01T06:41:26;7.43;;;4.05;;
21733;SDS011;11029;47.820;10.534;2023-02-01T06:43:55;7.05;;;3.97;;
21733;SDS011;11029;47.820;10.534;2023-02-01T06:46:21;6.43;;;4.22;;
21733;SDS011;11029;47.820;10.534;2023-02-01T06:48:48;5.93;;;3.97;;
21733;SDS011;11029;47.820;10.534;2023-02-01T06:51:24;5.78;;;3.97;;
21733;SDS011;11029;47.820;10.534;2023-02-01T06:53:52;7.00;;;3.95;;
21733;SDS011;11029;47.820;10.534;2023-02-01T06:56:19;6.88;;;4.15;;
21733;SDS011;11029;47.820;10.534;2023-02-01T06:58:46;6.80;;;3.80;;
21733;SDS011;11029;47.820;10.534;2023-02-01T07:01:13;6.47;;;4.25;;
21733;SDS011;11029;47.820;10.534;2023-02-01T07:03:41;7.07;;;3.83;;
21733;SDS011;11029;47.820;10.534;2023-02-01T07:06:08;6.15;;;3.90;;
21733;SDS011;11029;47.820;10.534;2023-02-01T07:08:36;6.20;;;3.97;;
21733;SDS011;11029;47.820;10.534;2023-02-01T07:11:07;7.72;;;3.80;;
21733;SDS011;11029;47.820;10.534;2023-02-01T07:13:36;6.35;;;3.78;;
21733;SDS011;11029;47.820;10.534;2023-02-01T07:16:04;6.80;;;4.30;;
21733;SDS011;11029;47.820;10.534;2023-02-01T07:18:33;6.85;;;4.38;;
21733;SDS011;11029;47.820;10.534;2023-02-01T07:21:00;5.78;;;3.65;;
21733;SDS011;11029;47.820;10.534;2023-02-01T07:23:26;8.30;;;3.95;;
21733;SDS011;11029;47.820;10.534;2023-02-01T07:25:57;6.72;;;3.95;;
21733;SDS011;11029;47.820;10.534;2023-02-01T07:28:25;6.97;;;4.47;;
21733;SDS011;11029;47.820;10.534;2023-02-01T07:30:54;7.47;;;4.75;;
21733;SDS011;11029;47.820;10.534;2023-02-01T07:33:21;6.90;;;4.10;;
21733;SDS011;11029;47.820;10.534;2023-02-01T07:35:53;6.28;;;4.25;;
21733;SDS011;11029;47.820;10.534;2023-02-01T07:38:20;5.88;;;3.67;;
21733;SDS011;11029;47.820;10.534;2023-02-01T07:40:48;6.85;;;4.18;;
21733;SDS011;11029;47.820;10.534;2023-02-01T07:43:15;5.22;;;4.10;;
21733;SDS011;11029;47.820;10.534;2023-02-01T07:45:42;6.25;;;4.18;;
21733;SDS011;11029;47.820;10.534;2023-02-01T07:48:09;4.80;;;3.80;;
21733;SDS011;11029;47.820;10.534;2023-02-01T07:50:36;5.70;;;4.22;;
21733;SDS011;11029;47.820;10.534;2023-02-01T07:53:02;7.30;;;3.78;;
21733;SDS011;11029;47.820;10.534;2023-02-01T07:55:29;6.70;;;4.20;;
21733;SDS011;11029;47.820;10.534;2023-02-01T07:57:56;6.85;;;4.00;;
21733;SDS011;11029;47.820;10.534;2023-02-01T08:00:24;5.95;;;3.80;;
21733;SDS011;11029;47.820;10.534;2023-02-01T08:03:10;6.47;;;3.95;;
21733;SDS011;11029;47.820;10.534;2023-02-01T08:05:37;8.00;;;4.45;;
21733;SDS011;11029;47.820;10.534;2023-02-01T08:08:04;5.88;;;3.60;;
21733;SDS011;11029;47.820;10.534;2023-02-01T08:10:31;6.28;;;3.92;;
21733;SDS011;11029;47.820;10.534;2023-02-01T08:12:58;5.20;;;3.95;;
21733;SDS011;11029;47.820;10.534;2023-02-01T08:15:26;6.93;;;4.20;;
21733;SDS011;11029;47.820;10.534;2023-02-01T08:17:53;6.90;;;4.35;;
21733;SDS011;11029;47.820;10.534;2023-02-01T08:20:21;7.30;;;4.03;;
21733;SDS011;11029;47.820;10.534;2023-02-01T08:22:52;5.03;;;3.73;;
21733;SDS011;11029;47.820;10.534;2023-02-01T08:25:20;5.30;;;4.13;;
21733;SDS011;11029;47.820;10.534;2023-02-01T08:27:47;6.43;;;4.07;;
21733;SDS011;11029;47.820;10.534;2023-02-01T08:30:14;5.47;;;4.03;;
21733;SDS011;11029;47.820;10.534;2023-02-01T08:32:41;6.00;;;3.90;;
21733;SDS011;11029;47.820;10.534;2023-02-01T08:35:08;6.30;;;3.72;;
21733;SDS011;11029;47.820;10.534;2023-02-01T08:37:35;5.55;;;3.90;;
21733;SDS011;11029;47.820;10.534;2023-02-01T08:40:02;5.25;;;3.92;;
21733;SDS011;11029;47.820;10.534;2023-02-01T08:42:30;5.28;;;3.80;;
21733;SDS011;11029;47.820;10.534;2023-02-01T08:45:16;5.60;;;3.83;;
21733;SDS011;11029;47.820;10.534;2023-02-01T08:47:54;5.50;;;3.92;;
21733;SDS011;11029;47.820;10.534;2023-02-01T08:50:21;5.50;;;3.95;;
21733;SDS011;11029;47.820;10.534;2023-02-01T08:52:49;4.55;;;3.60;;
21733;SDS011;11029;47.820;10.534;2023-02-01T08:55:16;5.28;;;3.63;;
21733;SDS011;11029;47.820;10.534;2023-02-01T08:57:43;7.70;;;4.43;;
21733;SDS011;11029;47.820;10.534;2023-02-01T09:00:11;7.07;;;3.95;;
21733;SDS011;11029;47.820;10.534;2023-02-01T09:02:39;6.43;;;4.07;;
21733;SDS011;11029;47.820;10.534;2023-02-01T09:05:06;7.40;;;3.60;;
21733;SDS011;11029;47.820;10.534;2023-02-01T09:07:33;5.57;;;3.72;;
21733;SDS011;11029;47.820;10.534;2023-02-01T09:10:01;7.45;;;4.18;;
21733;SDS011;11029;47.820;10.534;2023-02-01T09:12:28;8.00;;;3.88;;
21733;SDS011;11029;47.820;10.534;2023-02-01T09:14:56;5.85;;;3.53;;
21733;SDS011;11029;47.820;10.534;2023-02-01T09:17:26;5.90;;;3.90;;
21733;SDS011;11029;47.820;10.534;2023-02-01T09:19:54;6.65;;;4.22;;
21733;SDS011;11029;47.820;10.534;2023-02-01T09:22:21;5.22;;;3.50;;
21733;SDS011;11029;47.820;10.534;2023-02-01T09:24:48;5.35;;;4.20;;
21733;SDS011;11029;47.820;10.534;2023-02-01T09:27:15;5.85;;;3.95;;
21733;SDS011;11029;47.820;10.534;2023-02-01T09:29:41;5.22;;;3.58;;
21733;SDS011;11029;47.820;10.534;2023-02-01T09:32:08;6.05;;;3.92;;
21733;SDS011;11029;47.820;10.534;2023-02-01T09:34:35;6.43;;;3.85;;
21733;SDS011;11029;47.820;10.534;2023-02-01T09:37:02;5.53;;;3.95;;
21733;SDS011;11029;47.820;10.534;2023-02-01T09:39:29;5.25;;;3.67;;
21733;SDS011;11029;47.820;10.534;2023-02-01T09:42:12;4.88;;;3.33;;
21733;SDS011;11029;47.820;10.534;2023-02-01T09:47:32;5.20;;;3.28;;
21733;SDS011;11029;47.820;10.534;2023-02-01T09:50:03;5.13;;;3.22;;
21733;SDS011;11029;47.820;10.534;2023-02-01T09:52:47;3.95;;;2.92;;
21733;SDS011;11029;47.820;10.534;2023-02-01T09:55:36;5.30;;;3.40;;
21733;SDS011;11029;47.820;10.534;2023-02-01T10:00:59;4.15;;;3.00;;
21733;SDS011;11029;47.820;10.534;2023-02-01T10:03:28;5.68;;;3.10;;
21733;SDS011;11029;47.820;10.534;2023-02-01T10:06:05;5.07;;;3.53;;
21733;SDS011;11029;47.820;10.534;2023-02-01T10:26:27;4.43;;;2.53;;
21733;SDS011;11029;47.820;10.534;2023-02-01T10:29:00;3.38;;;2.58;;
21733;SDS011;11029;47.820;10.534;2023-02-01T10:31:30;4.03;;;3.05;;
21733;SDS011;11029;47.820;10.534;2023-02-01T10:34:06;3.75;;;2.50;;
21733;SDS011;11029;47.820;10.534;2023-02-01T10:36:42;3.80;;;2.55;;
21733;SDS011;11029;47.820;10.534;2023-02-01T10:39:32;3.92;;;2.67;;
21733;SDS011;11029;47.820;10.534;2023-02-01T10:41:59;2.47;;;2.28;;
21733;SDS011;11029;47.820;10.534;2023-02-01T10:44:29;2.90;;;2.10;;
21733;SDS011;11029;47.820;10.534;2023-02-01T10:46:57;3.73;;;2.80;;
21733;SDS011;11029;47.820;10.534;2023-02-01T10:49:29;3.60;;;2.45;;
21733;SDS011;11029;47.820;10.534;2023-02-01T10:52:10;3.88;;;2.58;;
21733;SDS011;11029;47.820;10.534;2023-02-01T10:54:46;4.57;;;2.33;;
21733;SDS011;11029;47.820;10.534;2023-02-01T10:57:20;3.25;;;2.30;;
21733;SDS011;11029;47.820;10.534;2023-02-01T10:59:51;3.60;;;2.47;;
21733;SDS011;11029;47.820;10.534;2023-02-01T11:02:31;4.07;;;2.80;;
21733;SDS011;11029;47.820;10.534;2023-02-01T11:05:02;3.97;;;2.47;;
21733;SDS011;11029;47.820;10.534;2023-02-01T11:07:38;2.67;;;2.15;;
21733;SDS011;11029;47.820;10.534;2023-02-01T11:10:34;3.15;;;2.30;;
21733;SDS011;11029;47.820;10.534;2023-02-01T11:13:17;2.40;;;2.10;;
21733;SDS011;11029;47.820;10.534;2023-02-01T11:15:45;5.00;;;2.30;;
21733;SDS011;11029;47.820;10.534;2023-02-01T11:19:56;4.13;;;2.33;;
21733;SDS011;11029;47.820;10.534;2023-02-01T11:22:27;2.90;;;2.45;;
21733;SDS011;11029;47.820;10.534;2023-02-01T11:24:55;3.60;;;2.60;;
21733;SDS011;11029;47.820;10.534;2023-02-01T11:27:23;3.05;;;2.22;;
21733;SDS011;11029;47.820;10.534;2023-02-01T11:29:59;4.18;;;2.60;;
21733;SDS011;11029;47.820;10.534;2023-02-01T11:32:28;5.28;;;3.05;;
21733;SDS011;11029;47.820;10.534;2023-02-01T11:35:05;2.97;;;2.35;;
21733;SDS011;11029;47.820;10.534;2023-02-01T11:37:37;3.97;;;2.47;;
21733;SDS011;11029;47.820;10.534;2023-02-01T11:40:48;3.00;;;2.50;;
21733;SDS011;11029;47.820;10.534;2023-02-01T11:43:17;2.80;;;2.10;;
21733;SDS011;11029;47.820;10.534;2023-02-01T11:45:54;3.35;;;2.30;;
21733;SDS011;11029;47.820;10.534;2023-02-01T11:48:26;3.22;;;2.20;;
21733;SDS011;11029;47.820;10.534;2023-02-01T11:51:33;2.75;;;2.30;;
21733;SDS011;11029;47.820;10.534;2023-02-01T11:54:03;3.25;;;2.20;;
21733;SDS011;11029;47.820;10.534;2023-02-01T11:57:03;4.18;;;2.05;;
21733;SDS011;11029;47.820;10.534;2023-02-01T11:59:39;2.53;;;2.10;;
21733;SDS011;11029;47.820;10.534;2023-02-01T12:16:50;3.95;;;1.95;;
21733;SDS011;11029;47.820;10.534;2023-02-01T12:25:34;4.55;;;2.25;;
21733;SDS011;11029;47.820;10.534;2023-02-01T12:29:07;3.10;;;2.45;;
21733;SDS011;11029;47.820;10.534;2023-02-01T12:34:10;3.72;;;2.42;;
21733;SDS011;11029;47.820;10.534;2023-02-01T12:39:31;3.53;;;2.13;;
21733;SDS011;11029;47.820;10.534;2023-02-01T12:42:09;4.28;;;2.42;;
21733;SDS011;11029;47.820;10.534;2023-02-01T12:52:35;2.45;;;1.90;;
21733;SDS011;11029;47.820;10.534;2023-02-01T12:55:27;4.43;;;2.60;;
21733;SDS011;11029;47.820;10.534;2023-02-01T13:01:00;2.00;;;1.80;;
21733;SDS011;11029;47.820;10.534;2023-02-01T13:03:57;3.55;;;2.40;;
21733;SDS011;11029;47.820;10.534;2023-02-01T13:06:45;4.50;;;2.40;;
21733;SDS011;11029;47.820;10.534;2023-02-01T13:09:36;2.65;;;2.28;;
21733;SDS011;11029;47.820;10.534;2023-02-01T13:12:57;3.55;;;2.00;;
21733;SDS011;11029;47.820;10.534;2023-02-01T13:15:05;3.95;;;2.40;;
21733;SDS011;11029;47.820;10.534;2023-02-01T13:17:36;4.15;;;2.47;;
21733;SDS011;11029;47.820;10.534;2023-02-01T13:20:22;3.53;;;2.35;;
21733;SDS011;11029;47.820;10.534;2023-02-01T13:23:09;4.57;;;2.17;;
21733;SDS011;11029;47.820;10.534;2023-02-01T13:25:48;3.15;;;2.10;;
21733;SDS011;11029;47.820;10.534;2023-02-01T13:34:03;4.78;;;2.70;;
21733;SDS011;11029;47.820;10.534;2023-02-01T13:39:27;3.50;;;2.50;;
21733;SDS011;11029;47.820;10.534;2023-02-01T13:42:18;4.75;;;2.58;;
21733;SDS011;11029;47.820;10.534;2023-02-01T13:44:58;4.63;;;2.33;;
21733;SDS011;11029;47.820;10.534;2023-02-01T13:47:32;4.38;;;2.63;;
21733;SDS011;11029;47.820;10.534;2023-02-01T13:55:25;4.78;;;2.67;;
21733;SDS011;11029;47.820;10.534;2023-02-01T13:58:00;4.65;;;2.75;;
21733;SDS011;11029;47.820;10.534;2023-02-01T14:00:34;3.33;;;2.58;;
21733;SDS011;11029;47.820;10.534;2023-02-01T14:13:29;5.88;;;3.33;;
21733;SDS011;11029;47.820;10.534;2023-02-01T14:24:04;4.55;;;2.78;;
21733;SDS011;11029;47.820;10.534;2023-02-01T14:26:47;6.43;;;2.95;;
21733;SDS011;11029;47.820;10.534;2023-02-01T14:42:20;6.85;;;3.25;;
21733;SDS011;11029;47.820;10.534;2023-02-01T14:44:51;6.13;;;3.83;;
21733;SDS011;11029;47.820;10.534;2023-02-01T14:47:27;5.80;;;3.33;;
21733;SDS011;11029;47.820;10.534;2023-02-01T14:52:37;7.50;;;2.45;;
21733;SDS011;11029;47.820;10.534;2023-02-01T14:55:17;5.40;;;3.70;;
21733;SDS011;11029;47.820;10.534;2023-02-01T14:57:52;4.50;;;2.70;;
21733;SDS011;11029;47.820;10.534;2023-02-01T15:00:23;4.47;;;2.83;;
21733;SDS011;11029;47.820;10.534;2023-02-01T15:02:52;5.47;;;2.42;;
21733;SDS011;11029;47.820;10.534;2023-02-01T15:05:31;6.07;;;2.95;;
21733;SDS011;11029;47.820;10.534;2023-02-01T15:08:03;5.57;;;2.30;;
21733;SDS011;11029;47.820;10.534;2023-02-01T15:10:40;3.80;;;2.08;;
21733;SDS011;11029;47.820;10.534;2023-02-01T15:13:20;4.60;;;2.58;;
21733;SDS011;11029;47.820;10.534;2023-02-01T15:16:07;4.45;;;2.30;;
21733;SDS011;11029;47.820;10.534;2023-02-01T15:18:40;5.32;;;2.67;;
21733;SDS011;11029;47.820;10.534;2023-02-01T15:21:15;5.90;;;2.38;;
21733;SDS011;11029;47.820;10.534;2023-02-01T15:24:11;8.15;;;2.50;;
21733;SDS011;11029;47.820;10.534;2023-02-01T15:26:45;5.03;;;2.40;;
21733;SDS011;11029;47.820;10.534;2023-02-01T15:29:12;6.35;;;2.25;;
21733;SDS011;11029;47.820;10.534;2023-02-01T15:31:47;6.88;;;2.53;;
21733;SDS011;11029;47.820;10.534;2023-02-01T15:34:17;4.63;;;2.38;;
21733;SDS011;11029;47.820;10.534;2023-02-01T15:36:45;4.78;;;2.15;;
21733;SDS011;11029;47.820;10.534;2023-02-01T15:39:28;3.70;;;1.80;;
21733;SDS011;11029;47.820;10.534;2023-02-01T15:41:58;5.32;;;1.90;;
21733;SDS011;11029;47.820;10.534;2023-02-01T15:44:32;6.22;;;2.20;;
21733;SDS011;11029;47.820;10.534;2023-02-01T15:47:17;5.20;;;1.92;;
21733;SDS011;11029;47.820;10.534;2023-02-01T15:49:47;4.43;;;2.33;;
21733;SDS011;11029;47.820;10.534;2023-02-01T15:52:32;6.40;;;2.13;;
21733;SDS011;11029;47.820;10.534;2023-02-01T15:55:17;6.05;;;1.77;;
21733;SDS011;11029;47.820;10.534;2023-02-01T15:57:46;5.43;;;1.75;;
21733;SDS011;11029;47.820;10.534;2023-02-01T16:05:31;4.32;;;2.25;;
21733;SDS011;11029;47.820;10.534;2023-02-01T16:08:01;6.88;;;1.55;;
21733;SDS011;11029;47.820;10.534;2023-02-01T16:10:43;6.28;;;2.60;;
21733;SDS011;11029;47.820;10.534;2023-02-01T16:13:12;5.80;;;2.40;;
21733;SDS011;11029;47.820;10.534;2023-02-01T16:15:40;6.55;;;1.95;;
21733;SDS011;11029;47.820;10.534;2023-02-01T16:18:07;6.68;;;1.90;;
21733;SDS011;11029;47.820;10.534;2023-02-01T16:20:38;7.65;;;1.90;;
21733;SDS011;11029;47.820;10.534;2023-02-01T16:23:06;6.13;;;1.52;;
21733;SDS011;11029;47.820;10.534;2023-02-01T16:25:34;5.47;;;1.92;;
21733;SDS011;11029;47.820;10.534;2023-02-01T16:28:01;6.93;;;1.90;;
21733;SDS011;11029;47.820;10.534;2023-02-01T16:30:28;3.88;;;2.22;;
21733;SDS011;11029;47.820;10.534;2023-02-01T16:32:55;7.43;;;2.10;;
21733;SDS011;11029;47.820;10.534;2023-02-01T16:35:24;8.07;;;2.20;;
21733;SDS011;11029;47.820;10.534;2023-02-01T16:38:02;4.85;;;1.92;;
21733;SDS011;11029;47.820;10.534;2023-02-01T16:40:34;4.90;;;1.50;;
21733;SDS011;11029;47.820;10.534;2023-02-01T16:43:01;8.00;;;1.88;;
21733;SDS011;11029;47.820;10.534;2023-02-01T16:45:28;7.43;;;1.90;;
21733;SDS011;11029;47.820;10.534;2023-02-01T16:47:55;4.20;;;1.92;;
21733;SDS011;11029;47.820;10.534;2023-02-01T16:50:24;7.40;;;1.90;;
21733;SDS011;11029;47.820;10.534;2023-02-01T16:52:52;6.57;;;1.90;;
21733;SDS011;11029;47.820;10.534;2023-02-01T16:55:20;7.03;;;2.22;;
21733;SDS011;11029;47.820;10.534;2023-02-01T16:57:48;7.90;;;2.03;;
21733;SDS011;11029;47.820;10.534;2023-02-01T17:00:15;5.65;;;1.77;;
21733;SDS011;11029;47.820;10.534;2023-02-01T17:02:51;6.20;;;1.80;;
21733;SDS011;11029;47.820;10.534;2023-02-01T17:05:19;3.63;;;1.90;;
21733;SDS011;11029;47.820;10.534;2023-02-01T17:07:46;3.92;;;1.52;;
21733;SDS011;11029;47.820;10.534;2023-02-01T17:10:18;9.30;;;2.00;;
21733;SDS011;11029;47.820;10.534;2023-02-01T17:12:59;5.97;;;2.20;;
21733;SDS011;11029;47.820;10.534;2023-02-01T17:15:27;7.32;;;2.00;;
21733;SDS011;11029;47.820;10.534;2023-02-01T17:17:57;5.53;;;2.38;;
21733;SDS011;11029;47.820;10.534;2023-02-01T17:20:28;5.93;;;2.20;;
21733;SDS011;11029;47.820;10.534;2023-02-01T17:22:58;7.43;;;2.20;;
21733;SDS011;11029;47.820;10.534;2023-02-01T17:25:24;5.28;;;2.28;;
21733;SDS011;11029;47.820;10.534;2023-02-01T17:27:53;5.13;;;1.98;;
21733;SDS011;11029;47.820;10.534;2023-02-01T17:30:20;7.07;;;2.20;;